sensor_id;sensor_type;location;lat;lon;timestamp;P1;durP1;ratioP1;P2;durP2;ratioP2
813;SDS011;389;48.710;9.392;2023-02-26T00:01:10;2.77;;;2.00;;
813;SDS011;389;48.710;9.392;2023-02-26T00:03:37;6.40;;;2.00;;
813;SDS011;389;48.710;9.392;2023-02-26T00:06:03;1.00;;;1.00;;
813;SDS011;389;48.710;9.392;2023-02-26T00:08:29;2.40;;;1.63;;
813;SDS011;389;48.710;9.392;2023-02-26T00:10:55;2.80;;;1.80;;
813;SDS011;389;48.710;9.392;2023-02-26T00:13:21;3.53;;;1.47;;
813;SDS011;389;48.710;9.392;2023-02-26T00:15:48;4.20;;;2.20;;
813;SDS011;389;48.710;9.392;2023-02-26T00:18:19;2.87;;;1.67;;
813;SDS011;389;48.710;9.392;2023-02-26T00:20:45;3.27;;;1.80;;
813;SDS011;389;48.710;9.392;2023-02-26T00:23:11;1.67;;;1.57;;
813;SDS011;389;48.710;9.392;2023-02-26T00:25:42;3.93;;;2.00;;
813;SDS011;389;48.710;9.392;2023-02-26T00:28:08;1.93;;;1.83;;
813;SDS011;389;48.710;9.392;2023-02-26T00:30:34;2.83;;;1.73;;
813;SDS011;389;48.710;9.392;2023-02-26T00:33:01;4.37;;;2.30;;
813;SDS011;389;48.710;9.392;2023-02-26T00:35:27;3.57;;;1.77;;
813;SDS011;389;48.710;9.392;2023-02-26T00:40:38;2.30;;;1.87;;
813;SDS011;389;48.710;9.392;2023-02-26T00:43:05;2.53;;;2.20;;
813;SDS011;389;48.710;9.392;2023-02-26T00:45:34;3.37;;;2.43;;
813;SDS011;389;48.710;9.392;2023-02-26T00:50:34;6.00;;;2.53;;
813;SDS011;389;48.710;9.392;2023-02-26T00:53:11;3.33;;;2.73;;
813;SDS011;389;48.710;9.392;2023-02-26T00:55:48;3.63;;;1.67;;
813;SDS011;389;48.710;9.392;2023-02-26T00:58:13;4.90;;;2.20;;
813;SDS011;389;48.710;9.392;2023-02-26T01:00:39;4.50;;;2.60;;
813;SDS011;389;48.710;9.392;2023-02-26T01:03:05;3.67;;;2.53;;
813;SDS011;389;48.710;9.392;2023-02-26T01:05:31;3.77;;;2.40;;
813;SDS011;389;48.710;9.392;2023-02-26T01:08:13;2.33;;;1.90;;
813;SDS011;389;48.710;9.392;2023-02-26T01:10:43;2.33;;;1.90;;
813;SDS011;389;48.710;9.392;2023-02-26T01:13:16;3.40;;;2.23;;
813;SDS011;389;48.710;9.392;2023-02-26T01:15:43;6.20;;;2.43;;
813;SDS011;389;48.710;9.392;2023-02-26T01:20:47;2.63;;;2.13;;
813;SDS011;389;48.710;9.392;2023-02-26T01:23:19;3.90;;;2.13;;
813;SDS011;389;48.710;9.392;2023-02-26T01:25:50;5.30;;;2.17;;
813;SDS011;389;48.710;9.392;2023-02-26T01:28:21;3.13;;;2.20;;
813;SDS011;389;48.710;9.392;2023-02-26T01:30:47;6.03;;;2.47;;
813;SDS011;389;48.710;9.392;2023-02-26T01:33:24;4.33;;;2.17;;
813;SDS011;389;48.710;9.392;2023-02-26T01:36:20;4.27;;;2.33;;
813;SDS011;389;48.710;9.392;2023-02-26T01:41:32;3.10;;;2.30;;
813;SDS011;389;48.710;9.392;2023-02-26T01:44:13;3.00;;;2.40;;
813;SDS011;389;48.710;9.392;2023-02-26T01:46:52;3.53;;;1.80;;
813;SDS011;389;48.710;9.392;2023-02-26T01:49:30;2.20;;;1.97;;
813;SDS011;389;48.710;9.392;2023-02-26T01:51:59;3.23;;;2.10;;
813;SDS011;389;48.710;9.392;2023-02-26T01:54:30;2.43;;;2.23;;
813;SDS011;389;48.710;9.392;2023-02-26T01:57:08;4.03;;;2.00;;
813;SDS011;389;48.710;9.392;2023-02-26T01:59:38;3.20;;;2.47;;
813;SDS011;389;48.710;9.392;2023-02-26T02:02:08;3.67;;;2.00;;
813;SDS011;389;48.710;9.392;2023-02-26T02:04:35;5.83;;;2.40;;
813;SDS011;389;48.710;9.392;2023-02-26T02:07:03;4.47;;;2.63;;
813;SDS011;389;48.710;9.392;2023-02-26T02:09:30;4.30;;;2.30;;
813;SDS011;389;48.710;9.392;2023-02-26T02:23:11;4.87;;;2.87;;
813;SDS011;389;48.710;9.392;2023-02-26T02:31:33;3.73;;;2.90;;
813;SDS011;389;48.710;9.392;2023-02-26T02:34:30;5.43;;;3.10;;
813;SDS011;389;48.710;9.392;2023-02-26T02:40:18;4.33;;;3.10;;
813;SDS011;389;48.710;9.392;2023-02-26T02:43:02;3.33;;;2.20;;
813;SDS011;389;48.710;9.392;2023-02-26T02:48:07;3.43;;;2.40;;
813;SDS011;389;48.710;9.392;2023-02-26T02:50:43;4.40;;;2.50;;
813;SDS011;389;48.710;9.392;2023-02-26T02:53:58;3.20;;;2.80;;
813;SDS011;389;48.710;9.392;2023-02-26T02:56:09;4.83;;;2.40;;
813;SDS011;389;48.710;9.392;2023-02-26T02:58:43;5.57;;;2.50;;
813;SDS011;389;48.710;9.392;2023-02-26T03:01:13;4.57;;;2.47;;
813;SDS011;389;48.710;9.392;2023-02-26T03:03:46;2.70;;;2.23;;
813;SDS011;389;48.710;9.392;2023-02-26T03:06:26;3.20;;;2.50;;
813;SDS011;389;48.710;9.392;2023-02-26T03:08:52;4.70;;;2.70;;
813;SDS011;389;48.710;9.392;2023-02-26T03:11:19;2.60;;;2.30;;
813;SDS011;389;48.710;9.392;2023-02-26T03:13:45;2.87;;;2.30;;
813;SDS011;389;48.710;9.392;2023-02-26T03:24:17;6.43;;;2.67;;
813;SDS011;389;48.710;9.392;2023-02-26T03:29:41;6.27;;;2.60;;
813;SDS011;389;48.710;9.392;2023-02-26T03:32:26;4.17;;;2.67;;
813;SDS011;389;48.710;9.392;2023-02-26T03:35:14;3.87;;;2.40;;
813;SDS011;389;48.710;9.392;2023-02-26T03:40:16;2.30;;;2.00;;
813;SDS011;389;48.710;9.392;2023-02-26T03:42:49;2.43;;;1.80;;
813;SDS011;389;48.710;9.392;2023-02-26T03:45:20;5.33;;;2.20;;
813;SDS011;389;48.710;9.392;2023-02-26T03:47:58;3.67;;;1.90;;
813;SDS011;389;48.710;9.392;2023-02-26T03:50:27;5.30;;;2.30;;
813;SDS011;389;48.710;9.392;2023-02-26T03:52:55;6.07;;;2.53;;
813;SDS011;389;48.710;9.392;2023-02-26T03:55:56;3.50;;;2.47;;
813;SDS011;389;48.710;9.392;2023-02-26T03:58:21;3.57;;;2.07;;
813;SDS011;389;48.710;9.392;2023-02-26T04:00:49;3.83;;;2.73;;
813;SDS011;389;48.710;9.392;2023-02-26T04:05:52;3.03;;;2.27;;
813;SDS011;389;48.710;9.392;2023-02-26T04:08:21;4.80;;;2.50;;
813;SDS011;389;48.710;9.392;2023-02-26T04:10:52;11.77;;;3.97;;
813;SDS011;389;48.710;9.392;2023-02-26T04:13:27;9.13;;;4.13;;
813;SDS011;389;48.710;9.392;2023-02-26T04:15:53;11.87;;;4.77;;
813;SDS011;389;48.710;9.392;2023-02-26T04:18:18;6.80;;;3.80;;
813;SDS011;389;48.710;9.392;2023-02-26T04:20:44;12.07;;;4.50;;
813;SDS011;389;48.710;9.392;2023-02-26T04:23:09;6.33;;;3.73;;
813;SDS011;389;48.710;9.392;2023-02-26T04:25:35;9.30;;;4.47;;
813;SDS011;389;48.710;9.392;2023-02-26T04:28:00;11.50;;;5.00;;
813;SDS011;389;48.710;9.392;2023-02-26T04:30:26;7.70;;;4.20;;
813;SDS011;389;48.710;9.392;2023-02-26T04:32:52;9.37;;;4.53;;
813;SDS011;389;48.710;9.392;2023-02-26T04:35:17;5.00;;;3.90;;
813;SDS011;389;48.710;9.392;2023-02-26T04:37:43;5.60;;;3.50;;
813;SDS011;389;48.710;9.392;2023-02-26T04:40:09;6.93;;;3.80;;
813;SDS011;389;48.710;9.392;2023-02-26T04:42:35;3.70;;;2.93;;
813;SDS011;389;48.710;9.392;2023-02-26T04:45:00;9.80;;;4.87;;
813;SDS011;389;48.710;9.392;2023-02-26T04:47:26;7.27;;;3.67;;
813;SDS011;389;48.710;9.392;2023-02-26T04:49:51;4.77;;;2.90;;
813;SDS011;389;48.710;9.392;2023-02-26T04:52:17;7.57;;;4.30;;
813;SDS011;389;48.710;9.392;2023-02-26T04:54:42;8.00;;;4.10;;
813;SDS011;389;48.710;9.392;2023-02-26T04:57:08;8.20;;;4.37;;
813;SDS011;389;48.710;9.392;2023-02-26T04:59:33;9.33;;;5.00;;
813;SDS011;389;48.710;9.392;2023-02-26T05:01:59;7.50;;;3.90;;
813;SDS011;389;48.710;9.392;2023-02-26T05:04:25;2.47;;;2.27;;
813;SDS011;389;48.710;9.392;2023-02-26T05:06:50;6.43;;;2.90;;
813;SDS011;389;48.710;9.392;2023-02-26T05:09:16;5.80;;;2.50;;
813;SDS011;389;48.710;9.392;2023-02-26T05:11:41;3.67;;;2.33;;
813;SDS011;389;48.710;9.392;2023-02-26T05:14:07;3.07;;;1.93;;
813;SDS011;389;48.710;9.392;2023-02-26T05:16:32;16.30;;;8.47;;
813;SDS011;389;48.710;9.392;2023-02-26T05:18:58;20.00;;;9.20;;
813;SDS011;389;48.710;9.392;2023-02-26T05:21:24;14.63;;;5.23;;
813;SDS011;389;48.710;9.392;2023-02-26T05:23:50;7.10;;;4.17;;
813;SDS011;389;48.710;9.392;2023-02-26T05:26:15;5.80;;;3.70;;
813;SDS011;389;48.710;9.392;2023-02-26T05:28:41;10.40;;;4.10;;
813;SDS011;389;48.710;9.392;2023-02-26T05:31:09;3.87;;;3.07;;
813;SDS011;389;48.710;9.392;2023-02-26T05:33:35;6.23;;;3.53;;
813;SDS011;389;48.710;9.392;2023-02-26T05:36:01;4.60;;;3.43;;
813;SDS011;389;48.710;9.392;2023-02-26T05:38:26;5.40;;;3.13;;
813;SDS011;389;48.710;9.392;2023-02-26T05:40:54;5.10;;;3.30;;
813;SDS011;389;48.710;9.392;2023-02-26T05:43:21;2.97;;;2.40;;
813;SDS011;389;48.710;9.392;2023-02-26T05:45:48;5.50;;;2.87;;
813;SDS011;389;48.710;9.392;2023-02-26T05:48:14;1.80;;;1.60;;
813;SDS011;389;48.710;9.392;2023-02-26T05:50:40;2.87;;;1.93;;
813;SDS011;389;48.710;9.392;2023-02-26T05:53:05;2.10;;;1.87;;
813;SDS011;389;48.710;9.392;2023-02-26T05:55:31;5.37;;;2.37;;
813;SDS011;389;48.710;9.392;2023-02-26T05:57:57;5.90;;;2.53;;
813;SDS011;389;48.710;9.392;2023-02-26T06:00:22;3.93;;;2.27;;
813;SDS011;389;48.710;9.392;2023-02-26T06:02:48;3.50;;;2.40;;
813;SDS011;389;48.710;9.392;2023-02-26T06:05:14;2.80;;;2.10;;
813;SDS011;389;48.710;9.392;2023-02-26T06:07:39;3.43;;;2.60;;
813;SDS011;389;48.710;9.392;2023-02-26T06:10:05;2.70;;;2.20;;
813;SDS011;389;48.710;9.392;2023-02-26T06:12:32;5.67;;;2.20;;
813;SDS011;389;48.710;9.392;2023-02-26T06:14:58;4.00;;;2.60;;
813;SDS011;389;48.710;9.392;2023-02-26T06:17:24;2.93;;;2.33;;
813;SDS011;389;48.710;9.392;2023-02-26T06:19:50;4.47;;;2.50;;
813;SDS011;389;48.710;9.392;2023-02-26T06:22:16;4.80;;;2.93;;
813;SDS011;389;48.710;9.392;2023-02-26T06:24:42;3.47;;;2.57;;
813;SDS011;389;48.710;9.392;2023-02-26T06:27:07;2.90;;;2.50;;
813;SDS011;389;48.710;9.392;2023-02-26T06:29:33;2.50;;;1.90;;
813;SDS011;389;48.710;9.392;2023-02-26T06:32:00;3.50;;;2.40;;
813;SDS011;389;48.710;9.392;2023-02-26T06:34:25;4.73;;;2.90;;
813;SDS011;389;48.710;9.392;2023-02-26T06:36:51;6.40;;;2.77;;
813;SDS011;389;48.710;9.392;2023-02-26T06:39:16;5.20;;;3.90;;
813;SDS011;389;48.710;9.392;2023-02-26T06:41:42;4.23;;;2.53;;
813;SDS011;389;48.710;9.392;2023-02-26T06:44:09;8.30;;;3.87;;
813;SDS011;389;48.710;9.392;2023-02-26T06:46:35;8.00;;;3.10;;
813;SDS011;389;48.710;9.392;2023-02-26T06:49:00;6.07;;;3.67;;
813;SDS011;389;48.710;9.392;2023-02-26T06:51:26;11.53;;;5.70;;
813;SDS011;389;48.710;9.392;2023-02-26T06:53:52;9.47;;;6.40;;
813;SDS011;389;48.710;9.392;2023-02-26T06:56:17;7.73;;;4.73;;
813;SDS011;389;48.710;9.392;2023-02-26T06:58:43;4.87;;;4.00;;
813;SDS011;389;48.710;9.392;2023-02-26T07:01:08;8.00;;;3.93;;
813;SDS011;389;48.710;9.392;2023-02-26T07:03:34;8.13;;;4.57;;
813;SDS011;389;48.710;9.392;2023-02-26T07:06:00;14.60;;;5.43;;
813;SDS011;389;48.710;9.392;2023-02-26T07:08:25;8.50;;;4.30;;
813;SDS011;389;48.710;9.392;2023-02-26T07:10:51;12.30;;;3.80;;
813;SDS011;389;48.710;9.392;2023-02-26T07:13:17;6.47;;;4.40;;
813;SDS011;389;48.710;9.392;2023-02-26T07:15:42;5.30;;;3.17;;
813;SDS011;389;48.710;9.392;2023-02-26T07:18:08;4.93;;;2.60;;
813;SDS011;389;48.710;9.392;2023-02-26T07:20:34;4.93;;;2.50;;
813;SDS011;389;48.710;9.392;2023-02-26T07:22:59;4.17;;;2.77;;
813;SDS011;389;48.710;9.392;2023-02-26T07:25:25;4.83;;;3.07;;
813;SDS011;389;48.710;9.392;2023-02-26T07:27:51;5.77;;;2.73;;
813;SDS011;389;48.710;9.392;2023-02-26T07:30:17;3.30;;;2.30;;
813;SDS011;389;48.710;9.392;2023-02-26T07:32:42;4.47;;;1.87;;
813;SDS011;389;48.710;9.392;2023-02-26T07:35:08;5.43;;;2.53;;
813;SDS011;389;48.710;9.392;2023-02-26T07:37:34;4.03;;;2.50;;
813;SDS011;389;48.710;9.392;2023-02-26T07:39:59;3.43;;;2.23;;
813;SDS011;389;48.710;9.392;2023-02-26T07:42:25;8.40;;;2.50;;
813;SDS011;389;48.710;9.392;2023-02-26T07:44:50;4.67;;;2.53;;
813;SDS011;389;48.710;9.392;2023-02-26T07:47:16;5.00;;;3.63;;
813;SDS011;389;48.710;9.392;2023-02-26T07:49:42;3.67;;;2.80;;
813;SDS011;389;48.710;9.392;2023-02-26T07:52:07;4.40;;;2.50;;
813;SDS011;389;48.710;9.392;2023-02-26T07:54:36;4.77;;;3.00;;
813;SDS011;389;48.710;9.392;2023-02-26T07:57:02;4.07;;;2.20;;
813;SDS011;389;48.710;9.392;2023-02-26T07:59:28;4.93;;;2.13;;
813;SDS011;389;48.710;9.392;2023-02-26T08:01:54;3.77;;;1.13;;
813;SDS011;389;48.710;9.392;2023-02-26T08:04:20;2.30;;;2.10;;
813;SDS011;389;48.710;9.392;2023-02-26T08:06:45;2.83;;;2.50;;
813;SDS011;389;48.710;9.392;2023-02-26T08:09:11;5.63;;;2.60;;
813;SDS011;389;48.710;9.392;2023-02-26T08:11:36;5.80;;;2.13;;
813;SDS011;389;48.710;9.392;2023-02-26T08:14:05;3.13;;;2.83;;
813;SDS011;389;48.710;9.392;2023-02-26T08:16:31;2.57;;;2.30;;
813;SDS011;389;48.710;9.392;2023-02-26T08:18:57;5.30;;;2.60;;
813;SDS011;389;48.710;9.392;2023-02-26T08:21:23;3.90;;;2.53;;
813;SDS011;389;48.710;9.392;2023-02-26T08:23:48;0.80;;;0.80;;
813;SDS011;389;48.710;9.392;2023-02-26T08:26:16;3.40;;;1.90;;
813;SDS011;389;48.710;9.392;2023-02-26T08:28:42;2.30;;;1.73;;
813;SDS011;389;48.710;9.392;2023-02-26T08:31:08;2.97;;;2.20;;
813;SDS011;389;48.710;9.392;2023-02-26T08:33:33;1.00;;;0.90;;
813;SDS011;389;48.710;9.392;2023-02-26T08:35:59;2.83;;;2.63;;
813;SDS011;389;48.710;9.392;2023-02-26T08:38:25;3.20;;;2.70;;
813;SDS011;389;48.710;9.392;2023-02-26T08:40:52;4.23;;;2.30;;
813;SDS011;389;48.710;9.392;2023-02-26T08:43:18;2.00;;;1.80;;
813;SDS011;389;48.710;9.392;2023-02-26T08:45:44;2.10;;;1.90;;
813;SDS011;389;48.710;9.392;2023-02-26T08:48:10;2.03;;;1.73;;
813;SDS011;389;48.710;9.392;2023-02-26T08:50:36;3.67;;;2.87;;
813;SDS011;389;48.710;9.392;2023-02-26T08:53:02;6.40;;;3.03;;
813;SDS011;389;48.710;9.392;2023-02-26T08:55:28;3.37;;;2.20;;
813;SDS011;389;48.710;9.392;2023-02-26T08:57:54;4.73;;;1.60;;
813;SDS011;389;48.710;9.392;2023-02-26T09:00:19;2.20;;;2.00;;
813;SDS011;389;48.710;9.392;2023-02-26T09:02:45;3.47;;;2.53;;
813;SDS011;389;48.710;9.392;2023-02-26T09:05:11;4.90;;;2.20;;
813;SDS011;389;48.710;9.392;2023-02-26T09:07:38;5.63;;;2.07;;
813;SDS011;389;48.710;9.392;2023-02-26T09:10:05;2.27;;;2.03;;
813;SDS011;389;48.710;9.392;2023-02-26T09:12:31;6.27;;;2.50;;
813;SDS011;389;48.710;9.392;2023-02-26T09:14:57;3.80;;;2.43;;
813;SDS011;389;48.710;9.392;2023-02-26T09:17:24;3.07;;;1.80;;
813;SDS011;389;48.710;9.392;2023-02-26T09:19:50;2.33;;;1.93;;
813;SDS011;389;48.710;9.392;2023-02-26T09:22:15;2.83;;;2.00;;
813;SDS011;389;48.710;9.392;2023-02-26T09:24:41;5.03;;;3.43;;
813;SDS011;389;48.710;9.392;2023-02-26T09:27:07;11.37;;;4.10;;
813;SDS011;389;48.710;9.392;2023-02-26T09:29:32;4.63;;;2.73;;
813;SDS011;389;48.710;9.392;2023-02-26T09:31:58;2.37;;;2.13;;
813;SDS011;389;48.710;9.392;2023-02-26T09:34:24;3.60;;;2.33;;
813;SDS011;389;48.710;9.392;2023-02-26T09:36:49;3.70;;;2.60;;
813;SDS011;389;48.710;9.392;2023-02-26T09:39:15;4.30;;;2.30;;
813;SDS011;389;48.710;9.392;2023-02-26T09:41:42;5.50;;;1.90;;
813;SDS011;389;48.710;9.392;2023-02-26T09:44:18;2.83;;;1.80;;
813;SDS011;389;48.710;9.392;2023-02-26T09:52:22;14.77;;;5.53;;
813;SDS011;389;48.710;9.392;2023-02-26T09:55:18;4.50;;;2.47;;
813;SDS011;389;48.710;9.392;2023-02-26T09:57:51;18.10;;;6.10;;
813;SDS011;389;48.710;9.392;2023-02-26T10:00:23;6.40;;;3.80;;
813;SDS011;389;48.710;9.392;2023-02-26T10:08:13;15.33;;;4.77;;
813;SDS011;389;48.710;9.392;2023-02-26T10:13:35;4.10;;;2.43;;
813;SDS011;389;48.710;9.392;2023-02-26T10:16:07;6.47;;;3.70;;
813;SDS011;389;48.710;9.392;2023-02-26T10:18:41;4.67;;;2.87;;
813;SDS011;389;48.710;9.392;2023-02-26T10:21:22;4.83;;;1.90;;
813;SDS011;389;48.710;9.392;2023-02-26T10:23:56;4.33;;;2.80;;
813;SDS011;389;48.710;9.392;2023-02-26T10:26:27;1.73;;;1.63;;
813;SDS011;389;48.710;9.392;2023-02-26T10:32:10;5.03;;;2.70;;
813;SDS011;389;48.710;9.392;2023-02-26T10:34:50;4.00;;;2.00;;
813;SDS011;389;48.710;9.392;2023-02-26T10:40:12;4.17;;;2.30;;
813;SDS011;389;48.710;9.392;2023-02-26T10:51:07;3.30;;;2.00;;
813;SDS011;389;48.710;9.392;2023-02-26T10:53:37;2.90;;;1.87;;
813;SDS011;389;48.710;9.392;2023-02-26T10:58:28;2.60;;;2.20;;
813;SDS011;389;48.710;9.392;2023-02-26T11:00:55;2.07;;;1.70;;
813;SDS011;389;48.710;9.392;2023-02-26T11:03:29;2.37;;;1.80;;
813;SDS011;389;48.710;9.392;2023-02-26T11:05:58;2.60;;;1.70;;
813;SDS011;389;48.710;9.392;2023-02-26T11:08:27;3.60;;;1.60;;
813;SDS011;389;48.710;9.392;2023-02-26T11:10:57;2.30;;;1.90;;
813;SDS011;389;48.710;9.392;2023-02-26T11:13:26;2.10;;;2.00;;
813;SDS011;389;48.710;9.392;2023-02-26T11:15:54;3.07;;;2.87;;
813;SDS011;389;48.710;9.392;2023-02-26T11:18:26;3.73;;;3.03;;
813;SDS011;389;48.710;9.392;2023-02-26T11:20:55;3.43;;;3.00;;
813;SDS011;389;48.710;9.392;2023-02-26T11:23:25;2.80;;;2.40;;
813;SDS011;389;48.710;9.392;2023-02-26T11:25:57;2.70;;;2.20;;
813;SDS011;389;48.710;9.392;2023-02-26T11:28:34;2.70;;;2.13;;
813;SDS011;389;48.710;9.392;2023-02-26T11:31:05;2.60;;;2.27;;
813;SDS011;389;48.710;9.392;2023-02-26T11:33:35;4.10;;;1.97;;
813;SDS011;389;48.710;9.392;2023-02-26T11:36:14;2.83;;;2.10;;
813;SDS011;389;48.710;9.392;2023-02-26T11:38:45;2.73;;;1.73;;
813;SDS011;389;48.710;9.392;2023-02-26T11:41:16;2.07;;;1.87;;
813;SDS011;389;48.710;9.392;2023-02-26T11:43:44;2.13;;;1.80;;
813;SDS011;389;48.710;9.392;2023-02-26T11:46:13;4.80;;;2.30;;
813;SDS011;389;48.710;9.392;2023-02-26T11:48:44;2.07;;;1.87;;
813;SDS011;389;48.710;9.392;2023-02-26T11:51:17;2.17;;;1.83;;
813;SDS011;389;48.710;9.392;2023-02-26T11:53:50;1.43;;;1.33;;
813;SDS011;389;48.710;9.392;2023-02-26T11:56:40;1.60;;;1.50;;
813;SDS011;389;48.710;9.392;2023-02-26T11:59:21;2.57;;;2.10;;
813;SDS011;389;48.710;9.392;2023-02-26T12:01:49;4.33;;;2.70;;
813;SDS011;389;48.710;9.392;2023-02-26T12:04:21;2.17;;;1.83;;
813;SDS011;389;48.710;9.392;2023-02-26T12:06:49;3.57;;;2.33;;
813;SDS011;389;48.710;9.392;2023-02-26T12:09:16;1.80;;;1.70;;
813;SDS011;389;48.710;9.392;2023-02-26T12:12:01;2.47;;;2.10;;
813;SDS011;389;48.710;9.392;2023-02-26T12:20:14;2.63;;;2.40;;
813;SDS011;389;48.710;9.392;2023-02-26T12:22:49;2.20;;;1.77;;
813;SDS011;389;48.710;9.392;2023-02-26T12:38:43;2.53;;;1.87;;
813;SDS011;389;48.710;9.392;2023-02-26T12:42:04;1.93;;;1.53;;
813;SDS011;389;48.710;9.392;2023-02-26T12:44:32;2.43;;;2.23;;
813;SDS011;389;48.710;9.392;2023-02-26T12:58:37;2.03;;;1.67;;
813;SDS011;389;48.710;9.392;2023-02-26T13:01:22;2.27;;;1.77;;
813;SDS011;389;48.710;9.392;2023-02-26T13:09:49;2.90;;;2.00;;
813;SDS011;389;48.710;9.392;2023-02-26T13:12:59;3.67;;;1.70;;
813;SDS011;389;48.710;9.392;2023-02-26T13:21:26;3.87;;;2.73;;
813;SDS011;389;48.710;9.392;2023-02-26T13:24:41;3.37;;;2.60;;
813;SDS011;389;48.710;9.392;2023-02-26T13:26:51;2.63;;;1.80;;
813;SDS011;389;48.710;9.392;2023-02-26T13:29:19;2.63;;;1.80;;
813;SDS011;389;48.710;9.392;2023-02-26T13:32:05;3.53;;;2.23;;
813;SDS011;389;48.710;9.392;2023-02-26T13:37:20;1.93;;;1.73;;
813;SDS011;389;48.710;9.392;2023-02-26T13:42:26;1.60;;;1.50;;
813;SDS011;389;48.710;9.392;2023-02-26T13:45:28;1.80;;;1.70;;
813;SDS011;389;48.710;9.392;2023-02-26T13:48:16;4.13;;;2.97;;
813;SDS011;389;48.710;9.392;2023-02-26T13:51:01;3.07;;;2.33;;
813;SDS011;389;48.710;9.392;2023-02-26T13:56:15;8.53;;;6.03;;
813;SDS011;389;48.710;9.392;2023-02-26T13:58:52;9.17;;;7.80;;
813;SDS011;389;48.710;9.392;2023-02-26T14:01:27;1.53;;;1.43;;
813;SDS011;389;48.710;9.392;2023-02-26T14:04:06;2.40;;;2.00;;
813;SDS011;389;48.710;9.392;2023-02-26T14:09:04;1.37;;;1.27;;
813;SDS011;389;48.710;9.392;2023-02-26T14:12:01;0.80;;;0.73;;
813;SDS011;389;48.710;9.392;2023-02-26T14:24:36;0.87;;;0.87;;
813;SDS011;389;48.710;9.392;2023-02-26T14:29:42;1.23;;;1.10;;
813;SDS011;389;48.710;9.392;2023-02-26T14:34:55;1.10;;;1.00;;
813;SDS011;389;48.710;9.392;2023-02-26T14:37:27;1.70;;;1.30;;
813;SDS011;389;48.710;9.392;2023-02-26T14:39:56;1.47;;;1.20;;
813;SDS011;389;48.710;9.392;2023-02-26T14:47:47;1.27;;;1.17;;
813;SDS011;389;48.710;9.392;2023-02-26T14:50:15;0.90;;;0.90;;
813;SDS011;389;48.710;9.392;2023-02-26T14:52:51;0.90;;;0.90;;
813;SDS011;389;48.710;9.392;2023-02-26T14:58:31;1.23;;;1.13;;
813;SDS011;389;48.710;9.392;2023-02-26T15:01:31;1.10;;;1.10;;
813;SDS011;389;48.710;9.392;2023-02-26T15:10:06;1.30;;;1.20;;
813;SDS011;389;48.710;9.392;2023-02-26T15:20:47;0.93;;;0.93;;
813;SDS011;389;48.710;9.392;2023-02-26T15:23:41;0.53;;;0.53;;
813;SDS011;389;48.710;9.392;2023-02-26T15:26:15;1.43;;;1.33;;
813;SDS011;389;48.710;9.392;2023-02-26T15:28:47;2.30;;;1.27;;
813;SDS011;389;48.710;9.392;2023-02-26T15:31:13;4.30;;;1.50;;
813;SDS011;389;48.710;9.392;2023-02-26T15:33:42;4.37;;;2.60;;
813;SDS011;389;48.710;9.392;2023-02-26T15:36:13;2.17;;;1.53;;
813;SDS011;389;48.710;9.392;2023-02-26T15:38:45;3.00;;;2.00;;
813;SDS011;389;48.710;9.392;2023-02-26T15:41:19;2.40;;;1.80;;
813;SDS011;389;48.710;9.392;2023-02-26T15:43:46;1.60;;;1.50;;
813;SDS011;389;48.710;9.392;2023-02-26T15:46:18;2.83;;;2.63;;
813;SDS011;389;48.710;9.392;2023-02-26T15:48:47;1.63;;;1.27;;
813;SDS011;389;48.710;9.392;2023-02-26T15:51:13;1.23;;;1.13;;
813;SDS011;389;48.710;9.392;2023-02-26T15:53:44;2.10;;;1.20;;
813;SDS011;389;48.710;9.392;2023-02-26T15:56:33;2.93;;;1.97;;
813;SDS011;389;48.710;9.392;2023-02-26T15:59:02;1.73;;;1.40;;
813;SDS011;389;48.710;9.392;2023-02-26T16:01:33;1.93;;;1.67;;
813;SDS011;389;48.710;9.392;2023-02-26T16:04:01;3.67;;;2.10;;
813;SDS011;389;48.710;9.392;2023-02-26T16:06:39;3.70;;;1.80;;
813;SDS011;389;48.710;9.392;2023-02-26T16:09:07;1.63;;;1.23;;
813;SDS011;389;48.710;9.392;2023-02-26T16:11:39;1.80;;;1.70;;
813;SDS011;389;48.710;9.392;2023-02-26T16:14:07;1.67;;;1.50;;
813;SDS011;389;48.710;9.392;2023-02-26T16:16:41;1.33;;;1.20;;
813;SDS011;389;48.710;9.392;2023-02-26T16:19:13;1.40;;;1.30;;
813;SDS011;389;48.710;9.392;2023-02-26T16:21:41;1.40;;;1.13;;
813;SDS011;389;48.710;9.392;2023-02-26T16:24:08;1.30;;;1.20;;
813;SDS011;389;48.710;9.392;2023-02-26T16:26:44;1.50;;;1.40;;
813;SDS011;389;48.710;9.392;2023-02-26T16:29:15;1.70;;;1.53;;
813;SDS011;389;48.710;9.392;2023-02-26T16:31:44;2.07;;;1.10;;
813;SDS011;389;48.710;9.392;2023-02-26T16:37:53;2.53;;;2.33;;
813;SDS011;389;48.710;9.392;2023-02-26T16:40:15;4.27;;;3.40;;
813;SDS011;389;48.710;9.392;2023-02-26T16:47:59;3.00;;;2.43;;
813;SDS011;389;48.710;9.392;2023-02-26T16:50:29;3.20;;;1.47;;
813;SDS011;389;48.710;9.392;2023-02-26T16:53:00;0.97;;;0.97;;
813;SDS011;389;48.710;9.392;2023-02-26T16:55:37;2.90;;;1.90;;
813;SDS011;389;48.710;9.392;2023-02-26T16:58:05;1.70;;;1.20;;
813;SDS011;389;48.710;9.392;2023-02-26T17:00:35;1.50;;;1.40;;
813;SDS011;389;48.710;9.392;2023-02-26T17:05:29;1.30;;;1.20;;
813;SDS011;389;48.710;9.392;2023-02-26T17:23:31;2.10;;;1.57;;
813;SDS011;389;48.710;9.392;2023-02-26T17:26:00;1.20;;;1.10;;
813;SDS011;389;48.710;9.392;2023-02-26T17:28:29;4.13;;;1.60;;
813;SDS011;389;48.710;9.392;2023-02-26T17:30:59;2.00;;;1.80;;
813;SDS011;389;48.710;9.392;2023-02-26T17:33:25;1.97;;;1.50;;
813;SDS011;389;48.710;9.392;2023-02-26T17:35:52;2.27;;;1.50;;
813;SDS011;389;48.710;9.392;2023-02-26T17:38:22;1.53;;;1.43;;
813;SDS011;389;48.710;9.392;2023-02-26T17:40:48;2.60;;;1.27;;
813;SDS011;389;48.710;9.392;2023-02-26T17:43:18;3.33;;;2.00;;
813;SDS011;389;48.710;9.392;2023-02-26T17:45:44;1.40;;;1.30;;
813;SDS011;389;48.710;9.392;2023-02-26T17:48:09;4.40;;;1.80;;
813;SDS011;389;48.710;9.392;2023-02-26T17:53:11;1.70;;;1.47;;
813;SDS011;389;48.710;9.392;2023-02-26T17:55:37;2.53;;;1.50;;
813;SDS011;389;48.710;9.392;2023-02-26T17:58:05;2.00;;;1.80;;
813;SDS011;389;48.710;9.392;2023-02-26T18:00:32;2.33;;;1.33;;
813;SDS011;389;48.710;9.392;2023-02-26T18:03:03;1.60;;;1.50;;
813;SDS011;389;48.710;9.392;2023-02-26T18:05:29;16.00;;;4.50;;
813;SDS011;389;48.710;9.392;2023-02-26T18:08:00;16.93;;;5.50;;
813;SDS011;389;48.710;9.392;2023-02-26T18:10:26;4.93;;;2.23;;
813;SDS011;389;48.710;9.392;2023-02-26T18:12:51;1.33;;;1.20;;
813;SDS011;389;48.710;9.392;2023-02-26T18:15:17;2.97;;;2.67;;
813;SDS011;389;48.710;9.392;2023-02-26T18:17:42;1.37;;;1.27;;
813;SDS011;389;48.710;9.392;2023-02-26T18:20:14;1.40;;;1.30;;
813;SDS011;389;48.710;9.392;2023-02-26T18:22:44;1.10;;;1.00;;
813;SDS011;389;48.710;9.392;2023-02-26T18:25:21;1.40;;;1.30;;
813;SDS011;389;48.710;9.392;2023-02-26T18:27:50;1.60;;;1.37;;
813;SDS011;389;48.710;9.392;2023-02-26T18:30:26;0.70;;;0.60;;
813;SDS011;389;48.710;9.392;2023-02-26T18:32:54;1.30;;;1.20;;
813;SDS011;389;48.710;9.392;2023-02-26T18:35:20;1.93;;;1.30;;
813;SDS011;389;48.710;9.392;2023-02-26T18:37:48;1.00;;;1.00;;
813;SDS011;389;48.710;9.392;2023-02-26T18:40:17;1.33;;;1.27;;
813;SDS011;389;48.710;9.392;2023-02-26T18:42:47;1.73;;;1.13;;
813;SDS011;389;48.710;9.392;2023-02-26T18:45:13;0.70;;;0.70;;
813;SDS011;389;48.710;9.392;2023-02-26T18:47:40;1.43;;;1.10;;
813;SDS011;389;48.710;9.392;2023-02-26T18:50:06;1.20;;;1.20;;
813;SDS011;389;48.710;9.392;2023-02-26T18:52:33;1.33;;;1.00;;
813;SDS011;389;48.710;9.392;2023-02-26T18:54:59;1.90;;;1.67;;
813;SDS011;389;48.710;9.392;2023-02-26T18:57:27;6.33;;;1.13;;
813;SDS011;389;48.710;9.392;2023-02-26T18:59:53;1.37;;;0.70;;
813;SDS011;389;48.710;9.392;2023-02-26T19:02:31;1.87;;;1.30;;
813;SDS011;389;48.710;9.392;2023-02-26T19:05:01;2.50;;;0.80;;
813;SDS011;389;48.710;9.392;2023-02-26T19:07:28;2.50;;;1.70;;
813;SDS011;389;48.710;9.392;2023-02-26T19:09:53;2.67;;;1.20;;
813;SDS011;389;48.710;9.392;2023-02-26T19:12:19;1.13;;;1.00;;
813;SDS011;389;48.710;9.392;2023-02-26T19:14:47;1.40;;;1.30;;
813;SDS011;389;48.710;9.392;2023-02-26T19:17:13;1.77;;;1.10;;
813;SDS011;389;48.710;9.392;2023-02-26T19:19:39;3.03;;;1.87;;
813;SDS011;389;48.710;9.392;2023-02-26T19:22:07;2.97;;;1.70;;